Login to view products. 
Friday, April 28, 2017 (10:09 UTC)
Sharjah International Airport
ICAO Code: OMSJ
IATA Code: SHJ
  • METAR OMSJ 281000Z 32012KT 8000 NSC 35/20 Q1008=
  • TAF OMSJ 280454Z 2806/2912 18005KT CAVOK BECMG 2808/2810 32012KT BECMG 2814/2816 10005KT BECMG 2904/2906 18010KT BECMG 2908/2910 34015KT=